createdAt,value
2016-08-05T00:00:52.288Z,79.45
2016-08-05T00:01:52.268Z,79.36
2016-08-05T00:02:52.246Z,79.45
2016-08-05T00:03:52.225Z,79.49
2016-08-05T00:04:52.203Z,80.16
2016-08-05T00:05:52.181Z,79.93
2016-08-05T00:06:52.164Z,79.93
2016-08-05T00:07:52.141Z,80.26
2016-08-05T00:08:52.124Z,79.74
2016-08-05T00:09:52.105Z,79.55
2016-08-05T00:10:52.077Z,79.64
2016-08-05T00:11:52.056Z,79.83
2016-08-05T00:12:52.040Z,80.03
2016-08-05T00:13:52.012Z,79.74
2016-08-05T00:14:51.994Z,80.03
2016-08-05T00:15:51.971Z,79.93
2016-08-05T00:16:51.951Z,79.83
2016-08-05T00:17:51.938Z,80.51
2016-08-05T00:18:51.908Z,80.32
2016-08-05T00:20:51.869Z,80.03
2016-08-05T00:21:51.843Z,80.7
2016-08-05T00:22:51.825Z,80.79
2016-08-05T00:23:51.800Z,80.7
2016-08-05T00:24:51.781Z,80.51
2016-08-05T00:25:51.760Z,80.41
2016-08-05T00:26:51.741Z,80.7
2016-08-05T00:27:51.719Z,80.51
2016-08-05T00:28:51.700Z,80.89
2016-08-05T00:29:51.773Z,80.99
2016-08-05T00:30:51.663Z,80.79
2016-08-05T00:31:51.635Z,80.51
2016-08-05T00:32:51.614Z,80.6
2016-08-05T00:33:51.590Z,80.7
2016-08-05T00:34:51.569Z,80.79
2016-08-05T00:35:51.549Z,80.79
2016-08-05T00:36:51.526Z,80.7
2016-08-05T00:37:51.505Z,80.99
2016-08-05T00:38:51.487Z,80.79
2016-08-05T00:39:51.462Z,80.99
2016-08-05T00:40:51.442Z,81.18
2016-08-05T00:41:51.417Z,80.99
2016-08-05T00:42:51.398Z,80.89
2016-08-05T00:43:51.380Z,81.75
2016-08-05T00:44:51.360Z,81.37
2016-08-05T00:45:51.333Z,81.18
2016-08-05T00:46:51.314Z,81.27
2016-08-05T00:47:51.292Z,81.56
2016-08-05T00:48:51.272Z,81.37
2016-08-05T00:49:51.248Z,81.18
2016-08-05T00:50:51.229Z,81.18
2016-08-05T00:51:51.212Z,81.08
2016-08-05T00:52:51.184Z,81.37
2016-08-05T00:53:51.165Z,81.46
2016-08-05T00:54:51.144Z,81.75
2016-08-05T00:55:51.126Z,81.37
2016-08-05T00:56:51.099Z,81.95
2016-08-05T00:57:51.080Z,81.95
2016-08-05T00:58:51.059Z,81.75
2016-08-05T00:59:51.036Z,81.75
2016-08-05T01:00:51.025Z,82.14
2016-08-05T01:01:50.996Z,81.66
2016-08-05T01:02:50.993Z,81.75
2016-08-05T01:03:50.952Z,81.66
2016-08-05T01:04:51.624Z,82.71
2016-08-05T01:05:50.921Z,82.04
2016-08-05T01:06:50.888Z,82.09
2016-08-05T01:07:50.865Z,81.71
2016-08-05T01:08:50.844Z,82.09
2016-08-05T01:09:50.825Z,82
2016-08-05T01:10:50.801Z,82.23
2016-08-05T01:11:50.779Z,82.19
2016-08-05T01:12:50.759Z,82.14
2016-08-05T01:13:50.745Z,82.29
2016-08-05T01:14:50.716Z,81.81
2016-08-05T01:15:50.693Z,82.57
2016-08-05T01:16:50.674Z,82
2016-08-05T01:17:50.665Z,82.38
2016-08-05T01:18:50.630Z,82.09
2016-08-05T01:19:50.613Z,82.96
2016-08-05T01:20:50.588Z,82.57
2016-08-05T01:21:50.567Z,82.67
2016-08-05T01:22:50.543Z,82.67
2016-08-05T01:23:50.524Z,83.25
2016-08-05T01:24:50.507Z,82.67
2016-08-05T01:25:50.482Z,83.25
2016-08-05T01:26:50.457Z,83.25
2016-08-05T01:27:50.435Z,83.15
2016-08-05T01:28:50.418Z,83.05
2016-08-05T01:29:50.409Z,83.15
2016-08-05T01:30:50.372Z,82.67
2016-08-05T01:31:50.350Z,82.67
2016-08-05T01:32:50.327Z,82.96
2016-08-05T01:33:50.309Z,82.67
2016-08-05T01:34:50.287Z,82.67
2016-08-05T01:35:50.263Z,83.05
2016-08-05T01:36:50.242Z,82.67
2016-08-05T01:37:50.227Z,82.57
2016-08-05T01:38:50.202Z,82.86
2016-08-05T01:39:50.190Z,82.67
2016-08-05T01:40:50.158Z,82.96
2016-08-05T01:41:50.136Z,82.86
2016-08-05T01:42:50.112Z,82.67
2016-08-05T01:43:50.093Z,82.67
2016-08-05T01:44:50.071Z,82.48
2016-08-05T01:45:50.049Z,82.86
2016-08-05T01:46:50.029Z,82.76
2016-08-05T01:47:50.005Z,82.76
2016-08-05T01:48:49.986Z,83.15
2016-08-05T01:49:49.963Z,82.67
2016-08-05T01:50:49.941Z,82.67
2016-08-05T01:51:49.917Z,82.76
2016-08-05T01:52:49.900Z,82.86
2016-08-05T01:53:50.567Z,82.76
2016-08-05T01:54:49.853Z,82.96
2016-08-05T01:55:49.833Z,82.96
2016-08-05T01:56:49.810Z,83.15
2016-08-05T01:57:49.789Z,82.76
2016-08-05T01:58:49.766Z,82.67
2016-08-05T01:59:49.753Z,82.86
2016-08-05T02:00:49.724Z,82.67
2016-08-05T02:01:49.704Z,82.76
2016-08-05T02:02:49.681Z,82.67
2016-08-05T02:03:49.659Z,82.67
2016-08-05T02:04:49.637Z,82.67
2016-08-05T02:05:49.616Z,82.96
2016-08-05T02:06:49.596Z,82.86
2016-08-05T02:07:49.574Z,82.57
2016-08-05T02:08:49.552Z,82.86
2016-08-05T02:09:49.529Z,82.67
2016-08-05T02:10:49.508Z,82.67
2016-08-05T02:11:49.485Z,83.05
2016-08-05T02:12:49.468Z,82.96
2016-08-05T02:13:49.441Z,83.34
2016-08-05T02:14:49.420Z,83.34
2016-08-05T02:15:49.400Z,83.05
2016-08-05T02:16:49.376Z,83.15
2016-08-05T02:17:49.364Z,83.05
2016-08-05T02:18:49.334Z,82.86
2016-08-05T02:19:49.313Z,82.67
2016-08-05T02:20:49.985Z,82.86
2016-08-05T02:21:49.270Z,82.86
2016-08-05T02:22:49.249Z,82.86
2016-08-05T02:23:49.227Z,82.76
2016-08-05T02:24:49.204Z,82.86
2016-08-05T02:25:49.181Z,82.67
2016-08-05T02:26:49.161Z,83.15
2016-08-05T02:27:49.146Z,83.15
2016-08-05T02:28:49.117Z,83.34
2016-08-05T02:29:49.093Z,83.34
2016-08-05T02:30:49.072Z,83.15
2016-08-05T02:31:49.052Z,83.01
2016-08-05T02:32:49.031Z,82.96
2016-08-05T02:33:49.009Z,83.05
2016-08-05T02:34:48.987Z,83.05
2016-08-05T02:35:48.964Z,82.92
2016-08-05T02:36:48.944Z,83.11
2016-08-05T02:37:48.922Z,83.39
2016-08-05T02:38:48.898Z,83.2
2016-08-05T02:39:48.890Z,83.3
2016-08-05T02:40:48.857Z,83.2
2016-08-05T02:41:48.834Z,83.34
2016-08-05T02:42:48.810Z,83.34
2016-08-05T02:43:48.790Z,83.49
2016-08-05T02:44:48.767Z,83.2
2016-08-05T02:45:48.744Z,82.92
2016-08-05T02:46:48.725Z,83.01
2016-08-05T02:47:48.701Z,83.11
2016-08-05T02:48:48.681Z,83.3
2016-08-05T02:49:48.659Z,83.2
2016-08-05T02:50:48.638Z,83.01
2016-08-05T02:51:48.614Z,83.2
2016-08-05T02:52:48.593Z,83.39
2016-08-05T02:53:48.568Z,83.11
2016-08-05T02:54:48.549Z,83.01
2016-08-05T02:55:48.528Z,83.11
2016-08-05T02:56:48.506Z,83.2
2016-08-05T02:57:48.487Z,83.2
2016-08-05T02:58:48.459Z,83.2
2016-08-05T02:59:48.439Z,83.2
2016-08-05T03:00:48.417Z,83.2
2016-08-05T03:01:48.397Z,83.49
2016-08-05T03:02:48.375Z,83.3
2016-08-05T03:03:48.351Z,83.01
2016-08-05T03:04:48.330Z,83.78
2016-08-05T03:05:48.312Z,82.92
2016-08-05T03:06:48.286Z,83.59
2016-08-05T03:07:48.265Z,83.87
2016-08-05T03:08:48.239Z,83.97
2016-08-05T03:09:48.220Z,83.39
2016-08-05T03:10:48.200Z,83.97
2016-08-05T03:11:48.175Z,83.68
2016-08-05T03:12:48.168Z,83.78
2016-08-05T03:13:48.132Z,83.78
2016-08-05T03:14:48.111Z,83.49
2016-08-05T03:15:48.087Z,83.87
2016-08-05T03:16:48.067Z,83.49
2016-08-05T03:17:48.043Z,83.49
2016-08-05T03:18:48.021Z,83.68
2016-08-05T03:19:48.000Z,83.49
2016-08-05T03:20:47.976Z,83.59
2016-08-05T03:21:47.956Z,83.39
2016-08-05T03:22:47.936Z,83.49
2016-08-05T03:23:47.912Z,83.68
2016-08-05T03:24:47.891Z,83.49
2016-08-05T03:25:47.869Z,83.49
2016-08-05T03:26:47.852Z,83.78
2016-08-05T03:27:47.827Z,83.68
2016-08-05T03:28:47.802Z,83.68
2016-08-05T03:29:47.779Z,83.68
2016-08-05T03:30:47.757Z,83.78
2016-08-05T03:31:47.735Z,83.97
2016-08-05T03:32:47.713Z,83.3
2016-08-05T03:33:47.691Z,83.2
2016-08-05T03:34:47.670Z,83.2
2016-08-05T03:35:47.648Z,83.39
2016-08-05T03:36:47.627Z,83.2
2016-08-05T03:37:47.602Z,83.49
2016-08-05T03:38:47.581Z,82.97
2016-08-05T03:39:47.559Z,83.01
2016-08-05T03:40:47.537Z,82.82
2016-08-05T03:41:47.517Z,83.3
2016-08-05T03:42:47.498Z,82.82
2016-08-05T03:43:47.472Z,83.01
2016-08-05T03:44:47.447Z,83.3
2016-08-05T03:45:47.427Z,83.11
2016-08-05T03:46:47.404Z,83.2
2016-08-05T03:47:47.383Z,83.11
2016-08-05T03:48:47.360Z,83.11
2016-08-05T03:49:47.337Z,83.3
2016-08-05T03:50:47.315Z,83.11
2016-08-05T03:51:47.293Z,83.11
2016-08-05T03:52:47.273Z,83.11
2016-08-05T03:53:47.252Z,83.2
2016-08-05T03:54:47.230Z,82.59
2016-08-05T03:55:47.207Z,82.78
2016-08-05T03:56:47.182Z,82.4
2016-08-05T03:57:47.160Z,82.4
2016-08-05T03:58:47.140Z,82.59
2016-08-05T03:59:47.116Z,82.97
2016-08-05T04:00:47.094Z,82.87
2016-08-05T04:01:47.072Z,82.78
2016-08-05T04:02:47.053Z,82.59
2016-08-05T04:03:47.028Z,83.01
2016-08-05T04:04:47.008Z,82.59
2016-08-05T04:05:46.984Z,82.59
2016-08-05T04:06:46.961Z,83.06
2016-08-05T04:07:46.940Z,82.49
2016-08-05T04:08:46.917Z,83.06
2016-08-05T04:09:46.895Z,82.82
2016-08-05T04:10:46.876Z,82.49
2016-08-05T04:11:46.852Z,83.06
2016-08-05T04:12:46.829Z,83.06
2016-08-05T04:13:46.808Z,82.59
2016-08-05T04:14:46.785Z,83.26
2016-08-05T04:15:46.763Z,83.16
2016-08-05T04:16:46.742Z,82.68
2016-08-05T04:17:46.718Z,83.16
2016-08-05T04:18:46.698Z,82.97
2016-08-05T04:19:46.676Z,82.87
2016-08-05T04:20:46.654Z,83.06
2016-08-05T04:21:46.630Z,82.78
2016-08-05T04:22:46.607Z,83.06
2016-08-05T04:23:46.594Z,82.87
2016-08-05T04:24:46.564Z,83.26
2016-08-05T04:26:46.522Z,83.16
2016-08-05T04:27:46.497Z,83.16
2016-08-05T04:28:46.475Z,83.16
2016-08-05T04:29:46.453Z,83.16
2016-08-05T04:30:46.431Z,83.83
2016-08-05T04:31:46.415Z,83.73
2016-08-05T04:32:46.393Z,83.73
2016-08-05T04:33:46.362Z,83.93
2016-08-05T04:34:46.342Z,83.64
2016-08-05T04:35:46.321Z,83.45
2016-08-05T04:36:46.299Z,83.45
2016-08-05T04:37:46.277Z,83.64
2016-08-05T04:38:46.256Z,83.45
2016-08-05T04:39:46.232Z,83.45
2016-08-05T04:41:46.189Z,83.49
2016-08-05T04:42:46.167Z,83.54
2016-08-05T04:43:46.146Z,83.59
2016-08-05T04:44:46.123Z,83.39
2016-08-05T04:45:46.103Z,83.54
2016-08-05T04:46:46.078Z,83.87
2016-08-05T04:47:46.058Z,83.78
2016-08-05T04:48:46.037Z,83.59
2016-08-05T04:49:46.014Z,83.78
2016-08-05T04:50:45.995Z,83.68
2016-08-05T04:51:45.978Z,83.87
2016-08-05T04:52:45.950Z,83.78
2016-08-05T04:53:45.925Z,83.78
2016-08-05T04:54:45.904Z,83.01
2016-08-05T04:55:45.885Z,83.11
2016-08-05T04:56:45.868Z,83.2
2016-08-05T04:57:45.843Z,82.92
2016-08-05T04:58:45.824Z,83.11
2016-08-05T04:59:45.797Z,83.11
2016-08-05T05:00:45.777Z,82.53
2016-08-05T05:01:45.757Z,82.63
2016-08-05T05:02:45.735Z,82.63
2016-08-05T05:03:45.713Z,83.2
2016-08-05T05:04:45.690Z,83.01
2016-08-05T05:05:45.670Z,82.67
2016-08-05T05:06:45.651Z,82.34
2016-08-05T05:07:45.630Z,82.57
2016-08-05T05:08:45.605Z,82.57
2016-08-05T05:09:45.588Z,82.67
2016-08-05T05:10:45.565Z,82.38
2016-08-05T05:11:45.543Z,82.29
2016-08-05T05:12:45.525Z,82.19
2016-08-05T05:13:45.501Z,82.38
2016-08-05T05:14:45.479Z,82.38
2016-08-05T05:15:45.461Z,82.09
2016-08-05T05:16:45.438Z,82.29
2016-08-05T05:17:45.421Z,81.9
2016-08-05T05:18:45.399Z,81.62
2016-08-05T05:19:45.375Z,81.62
2016-08-05T05:20:45.354Z,81.52
2016-08-05T05:21:45.333Z,81.71
2016-08-05T05:22:45.314Z,81.9
2016-08-05T05:23:45.291Z,81.81
2016-08-05T05:24:45.271Z,81.81
2016-08-05T05:25:45.251Z,81.81
2016-08-05T05:26:45.234Z,81.52
2016-08-05T05:27:45.209Z,81.62
2016-08-05T05:28:45.188Z,81.04
2016-08-05T05:29:45.858Z,81.33
2016-08-05T05:30:45.144Z,81.62
2016-08-05T05:31:45.124Z,81.04
2016-08-05T05:32:45.111Z,81.04
2016-08-05T05:33:45.087Z,80.85
2016-08-05T05:34:45.062Z,80.94
2016-08-05T05:35:45.041Z,80.94
2016-08-05T05:36:45.022Z,80.94
2016-08-05T05:37:45.000Z,80.76
2016-08-05T05:38:44.980Z,80.76
2016-08-05T05:39:44.961Z,80.85
2016-08-05T05:40:44.940Z,80.7
2016-08-05T05:41:44.918Z,80.89
2016-08-05T05:42:44.903Z,80.79
2016-08-05T05:43:45.574Z,80.51
2016-08-05T05:44:44.858Z,80.51
2016-08-05T05:45:44.838Z,80.7
2016-08-05T05:46:44.816Z,80.51
2016-08-05T05:47:44.797Z,80.32
2016-08-05T05:48:44.788Z,79.93
2016-08-05T05:49:44.758Z,80.03
2016-08-05T05:50:44.740Z,79.55
2016-08-05T05:51:44.717Z,79.93
2016-08-05T05:52:44.697Z,79.26
2016-08-05T05:53:44.678Z,79.59
2016-08-05T05:54:44.659Z,79.59
2016-08-05T05:55:44.644Z,79.01
2016-08-05T05:56:44.619Z,79.01
2016-08-05T05:57:44.597Z,78.72
2016-08-05T05:58:44.582Z,78.44
2016-08-05T05:59:44.559Z,78.72
2016-08-05T06:00:44.548Z,78.44
2016-08-05T06:01:44.522Z,78.72
2016-08-05T06:02:44.503Z,78.34
2016-08-05T06:03:44.482Z,78.44
2016-08-05T06:04:44.464Z,78.72
2016-08-05T06:05:44.442Z,78.05
2016-08-05T06:06:44.424Z,78.05
2016-08-05T06:07:44.405Z,77.38
2016-08-05T06:08:44.397Z,77.58
2016-08-05T06:09:44.367Z,77.58
2016-08-05T06:10:44.358Z,77.51
2016-08-05T06:11:44.327Z,76.75
2016-08-05T06:12:44.310Z,76.84
2016-08-05T06:13:44.292Z,76.94
2016-08-05T06:14:44.275Z,76.75
2016-08-05T06:15:44.255Z,76.17
2016-08-05T06:16:44.936Z,76.37
2016-08-05T06:17:44.217Z,76.17
2016-08-05T06:18:44.199Z,76.07
2016-08-05T06:19:44.193Z,75.54
2016-08-05T06:20:44.161Z,75.06
2016-08-05T06:21:44.144Z,75.25
2016-08-05T06:22:44.129Z,74.77
2016-08-05T06:23:44.110Z,74.68
2016-08-05T06:24:44.092Z,74.77
2016-08-05T06:25:44.078Z,74.04
2016-08-05T06:26:44.058Z,73.75
2016-08-05T06:27:44.039Z,73.56
2016-08-05T06:28:44.023Z,73.37
2016-08-05T06:29:44.006Z,73.27
2016-08-05T06:30:43.989Z,73.46
2016-08-05T06:31:43.972Z,73.37
2016-08-05T06:32:43.953Z,73.18
2016-08-05T06:33:43.960Z,73.27
2016-08-05T06:34:44.025Z,73.46
2016-08-05T06:35:43.907Z,72.5
2016-08-05T06:36:43.893Z,72.54
2016-08-05T06:37:43.867Z,72.64
2016-08-05T06:38:44.545Z,72.6
2016-08-05T06:39:43.931Z,72.41
2016-08-05T06:40:43.814Z,72.83
2016-08-05T06:41:43.798Z,72.79
2016-08-05T06:42:43.779Z,72.6
2016-08-05T06:43:43.868Z,72.69
2016-08-05T06:44:43.746Z,72.5
2016-08-05T06:45:43.731Z,72.5
2016-08-05T06:46:44.344Z,72.69
2016-08-05T06:47:44.545Z,72.54
2016-08-05T06:48:44.461Z,72.89
2016-08-05T06:49:44.365Z,72.89
2016-08-05T06:50:44.937Z,72.44
2016-08-05T06:51:44.273Z,72.44
2016-08-05T06:52:44.349Z,72.6
2016-08-05T06:53:44.445Z,72.83
2016-08-05T06:54:44.332Z,72.34
2016-08-05T06:55:44.228Z,72.54
2016-08-05T06:56:44.623Z,72.54
2016-08-05T06:57:44.419Z,72.73
2016-08-05T06:58:44.199Z,72.64
2016-08-05T06:59:44.243Z,72.83
2016-08-05T07:00:44.071Z,72.73
2016-08-05T07:01:44.504Z,72.64
2016-08-05T07:02:45.064Z,72.64
2016-08-05T07:03:44.113Z,72.16
2016-08-05T07:04:44.264Z,72.25
2016-08-05T07:05:43.965Z,72.64
2016-08-05T07:06:44.184Z,72.73
2016-08-05T07:07:44.023Z,72.54
2016-08-05T07:08:44.025Z,73.31
2016-08-05T07:09:44.054Z,73.08
2016-08-05T07:10:43.865Z,73.94
2016-08-05T07:11:44.031Z,73.08
2016-08-05T07:12:44.093Z,73.37
2016-08-05T07:13:43.904Z,73.21
2016-08-05T07:14:43.849Z,73.41
2016-08-05T07:15:43.800Z,73.11
2016-08-05T07:16:44.055Z,73.11
2016-08-05T07:17:43.931Z,73.69
2016-08-05T07:18:43.775Z,73.02
2016-08-05T07:19:43.633Z,73.11
2016-08-05T07:20:43.808Z,73.66
2016-08-05T07:21:43.846Z,73.6
2016-08-05T07:22:43.834Z,73.75
2016-08-05T07:23:44.024Z,73.94
2016-08-05T07:24:43.822Z,73.94
2016-08-05T07:25:43.864Z,74.04
2016-08-05T07:26:43.976Z,73.79
2016-08-05T07:27:43.901Z,73.37
2016-08-05T07:28:43.760Z,73.56
2016-08-05T07:29:43.555Z,73.69
2016-08-05T07:30:43.847Z,73.6
2016-08-05T07:31:43.585Z,73.41
2016-08-05T07:32:43.580Z,73.98
2016-08-05T07:33:43.606Z,72.92
2016-08-05T07:34:43.523Z,73.31
2016-08-05T07:35:43.690Z,73.5
2016-08-05T07:36:43.595Z,73.31
2016-08-05T07:37:43.657Z,72.73
2016-08-05T07:38:43.370Z,72.73
2016-08-05T07:39:43.504Z,72.54
2016-08-05T07:40:43.474Z,72.54
2016-08-05T07:41:43.786Z,72.83
2016-08-05T07:42:43.364Z,72.44
2016-08-05T07:43:44.043Z,72.64
2016-08-05T07:44:43.152Z,72.96
2016-08-05T07:45:43.224Z,72.44
2016-08-05T07:46:43.354Z,72.54
2016-08-05T07:47:43.438Z,72.54
2016-08-05T07:48:43.187Z,72.44
2016-08-05T07:49:43.380Z,72.92
2016-08-05T07:50:43.231Z,72.44
2016-08-05T07:51:43.245Z,72.83
2016-08-05T07:52:43.195Z,72.54
2016-08-05T07:53:43.362Z,72.64
2016-08-05T07:54:43.379Z,72.54
2016-08-05T07:55:43.078Z,72.73
2016-08-05T07:56:43.138Z,73.31
2016-08-05T07:57:43.304Z,73.31
2016-08-05T07:58:43.130Z,73.21
2016-08-05T07:59:43.188Z,73.31
2016-08-05T08:00:43.126Z,73.02
2016-08-05T08:01:43.099Z,73.69
2016-08-05T08:02:43.262Z,73.21
2016-08-05T08:03:43.107Z,73.11
2016-08-05T08:04:43.029Z,73.88
2016-08-05T08:05:43.060Z,73.88
2016-08-05T08:06:43.169Z,73.69
2016-08-05T08:07:43.114Z,73.6
2016-08-05T08:08:42.929Z,73.94
2016-08-05T08:09:43.342Z,74.23
2016-08-05T08:10:42.861Z,74.04
2016-08-05T08:11:43.006Z,74.13
2016-08-05T08:12:43.082Z,74.33
2016-08-05T08:13:42.931Z,74.33
2016-08-05T08:14:42.886Z,74.33
2016-08-05T08:15:43.091Z,74.33
2016-08-05T08:16:42.803Z,74.71
2016-08-05T08:17:43.055Z,74.62
2016-08-05T08:18:52.552Z,74.62
2016-08-05T08:19:42.853Z,74.9
2016-08-05T08:20:43.388Z,74.52
2016-08-05T08:21:42.972Z,74.81
2016-08-05T08:22:42.676Z,74.71
2016-08-05T08:23:42.856Z,74.9
2016-08-05T08:24:42.846Z,74.43
2016-08-05T08:25:42.732Z,74.62
2016-08-05T08:26:42.693Z,74.62
2016-08-05T08:27:42.816Z,74.43
2016-08-05T08:28:42.495Z,74.62
2016-08-05T08:29:42.584Z,74.43
2016-08-05T08:30:42.923Z,74.52
2016-08-05T08:31:42.653Z,74.62
2016-08-05T08:32:42.586Z,74.52
2016-08-05T08:33:42.531Z,74.23
2016-08-05T08:34:42.472Z,75
2016-08-05T08:35:42.465Z,74.62
2016-08-05T08:36:42.464Z,74.9
2016-08-05T08:37:42.240Z,74.9
2016-08-05T08:38:42.441Z,74.71
2016-08-05T08:39:42.514Z,74.71
2016-08-05T08:40:42.498Z,74.9
2016-08-05T08:41:42.230Z,75.2
2016-08-05T08:42:42.184Z,75.29
2016-08-05T08:43:42.257Z,75.2
2016-08-05T08:44:42.616Z,75.1
2016-08-05T08:45:42.249Z,75.2
2016-08-05T08:46:42.352Z,74.9
2016-08-05T08:47:42.259Z,74.9
2016-08-05T08:48:42.179Z,75.1
2016-08-05T08:49:42.202Z,74.85
2016-08-05T08:50:42.280Z,74.62
2016-08-05T08:51:42.157Z,74.65
2016-08-05T08:52:42.183Z,74.75
2016-08-05T08:53:42.274Z,74.71
2016-08-05T08:54:41.948Z,74.71
2016-08-05T08:55:42.229Z,74.27
2016-08-05T08:56:42.110Z,74.55
2016-08-05T08:57:42.075Z,74.75
2016-08-05T08:58:42.054Z,74.94
2016-08-05T08:59:42.070Z,74.27
2016-08-05T09:00:42.312Z,74.08
2016-08-05T09:01:42.063Z,74.27
2016-08-05T09:02:41.917Z,74.37
2016-08-05T09:03:42.101Z,73.98
2016-08-05T09:04:41.888Z,74.08
2016-08-05T09:05:41.957Z,73.73
2016-08-05T09:06:42.178Z,73.54
2016-08-05T09:07:42.278Z,73.54
2016-08-05T09:08:42.214Z,73.83
2016-08-05T09:09:41.923Z,73.44
2016-08-05T09:10:42.292Z,73.35
2016-08-05T09:11:41.942Z,73.15
2016-08-05T09:12:41.991Z,73.25
2016-08-05T09:13:41.854Z,73.25
2016-08-05T09:14:42.018Z,73.44
2016-08-05T09:15:41.904Z,73.35
2016-08-05T09:16:42.111Z,73.25
2016-08-05T09:17:41.828Z,72.77
2016-08-05T09:18:41.947Z,72.32
2016-08-05T09:19:41.735Z,72.71
2016-08-05T09:20:41.999Z,72.61
2016-08-05T09:21:41.023Z,72.42
2016-08-05T09:22:41.139Z,71.94
2016-08-05T09:23:41.276Z,71.94
2016-08-05T09:24:41.728Z,71.84
2016-08-05T09:25:42.013Z,71.65
2016-08-05T09:26:41.494Z,71.55
2016-08-05T09:27:41.734Z,71.36
2016-08-05T09:28:41.648Z,71.65
2016-08-05T09:29:41.646Z,71.65
2016-08-05T09:30:40.874Z,71.84
2016-08-05T09:31:40.859Z,71.65
2016-08-05T09:32:41.005Z,71.55
2016-08-05T09:33:40.826Z,71.46
2016-08-05T09:34:40.810Z,71.46
2016-08-05T09:35:40.923Z,71.26
2016-08-05T09:36:40.780Z,71.46
2016-08-05T09:37:40.807Z,71.36
2016-08-05T09:38:40.753Z,71.75
2016-08-05T09:39:40.727Z,72.13
2016-08-05T09:40:40.713Z,71.75
2016-08-05T09:41:40.698Z,71.75
2016-08-05T09:42:40.689Z,71.26
2016-08-05T09:43:40.811Z,71.36
2016-08-05T09:44:40.647Z,71.46
2016-08-05T09:45:41.519Z,71.65
2016-08-05T09:46:40.617Z,71.65
2016-08-05T09:47:40.596Z,71.65
2016-08-05T09:48:40.676Z,71.36
2016-08-05T09:49:40.564Z,71.75
2016-08-05T09:50:40.549Z,71.36
2016-08-05T09:51:40.534Z,71.2
2016-08-05T09:52:40.518Z,71.75
2016-08-05T09:53:40.497Z,71.4
2016-08-05T09:54:40.484Z,71.2
2016-08-05T09:55:40.525Z,71.2
2016-08-05T09:56:40.477Z,71.11
2016-08-05T09:57:40.458Z,70.62
2016-08-05T09:58:40.422Z,70.43
2016-08-05T09:59:40.665Z,70.34
2016-08-05T10:00:41.806Z,70.05
2016-08-05T10:01:40.382Z,70.43
2016-08-05T10:02:40.430Z,69.85
2016-08-05T10:03:40.395Z,69.76
2016-08-05T10:04:40.384Z,69.31
2016-08-05T10:05:40.367Z,69.22
2016-08-05T10:06:40.393Z,68.54
2016-08-05T10:07:40.436Z,68.48
2016-08-05T10:08:40.422Z,67.9
2016-08-05T10:09:40.404Z,68
2016-08-05T10:10:40.384Z,68
2016-08-05T10:11:40.378Z,67.65
2016-08-05T10:12:41.178Z,66.97
2016-08-05T10:13:40.445Z,67.07
2016-08-05T10:14:40.298Z,67.26
2016-08-05T10:15:40.656Z,66.59
2016-08-05T10:16:40.645Z,66.39
2016-08-05T10:17:40.464Z,66.3
2016-08-05T10:18:40.183Z,66.2
2016-08-05T10:19:40.173Z,66.3
2016-08-05T10:20:40.102Z,65.72
2016-08-05T10:21:40.145Z,65.91
2016-08-05T10:22:40.134Z,65.17
2016-08-05T10:23:40.171Z,65.37
2016-08-05T10:24:40.105Z,64.5
2016-08-05T10:25:40.180Z,64.5
2016-08-05T10:27:40.065Z,64.5
2016-08-05T10:28:39.996Z,64.4
2016-08-05T10:29:40.144Z,64.4
2016-08-05T10:30:39.977Z,65.08
2016-08-05T10:31:39.962Z,64.98
2016-08-05T10:32:39.942Z,65.27
2016-08-05T10:33:40.013Z,65.37
2016-08-05T10:34:39.916Z,65.27
2016-08-05T10:35:39.898Z,65.47
2016-08-05T10:36:40.358Z,65.47
2016-08-05T10:37:39.870Z,65.17
2016-08-05T10:38:39.964Z,65.47
2016-08-05T10:39:39.844Z,65.37
2016-08-05T10:40:39.833Z,65.08
2016-08-05T10:42:39.947Z,64.5
2016-08-05T10:43:39.794Z,64.21
2016-08-05T10:44:39.817Z,64.21
2016-08-05T10:45:39.774Z,64.02
2016-08-05T10:46:39.758Z,64.15
2016-08-05T10:47:39.955Z,63.76
2016-08-05T10:48:39.735Z,63.47
2016-08-05T10:49:39.727Z,63.47
2016-08-05T10:50:40.410Z,63.18
2016-08-05T10:51:39.693Z,63.09
2016-08-05T10:52:39.688Z,62.99
2016-08-05T10:53:39.668Z,62.79
2016-08-05T10:54:39.791Z,62.51
2016-08-05T10:55:39.793Z,62.22
2016-08-05T10:56:39.630Z,61.64
2016-08-05T10:57:39.619Z,61.57
2016-08-05T10:58:39.608Z,61.38
2016-08-05T10:59:39.735Z,60.71
2016-08-05T11:00:39.582Z,60.61
2016-08-05T11:01:39.602Z,59.93
2016-08-05T11:02:39.565Z,60.16
2016-08-05T11:03:39.550Z,59.86
2016-08-05T11:04:39.540Z,59.58
2016-08-05T11:05:39.539Z,58.73
2016-08-05T11:06:39.516Z,58.35
2016-08-05T11:07:39.512Z,57.19
2016-08-05T11:08:39.498Z,57.03
2016-08-05T11:09:39.489Z,56.73
2016-08-05T11:10:39.509Z,56.45
2016-08-05T11:11:39.474Z,56.93
2016-08-05T11:12:39.470Z,56.35
2016-08-05T11:13:39.463Z,55.96
2016-08-05T11:14:39.439Z,56.15
2016-08-05T11:15:39.434Z,56.15
2016-08-05T11:16:39.430Z,55.38
2016-08-05T11:17:39.409Z,55.77
2016-08-05T11:18:39.397Z,55.41
2016-08-05T11:19:39.388Z,55.41
2016-08-05T11:20:39.378Z,55.31
2016-08-05T11:21:39.665Z,55.31
2016-08-05T11:22:39.444Z,55.02
2016-08-05T11:23:39.344Z,54.53
2016-08-05T11:24:39.886Z,54.35
2016-08-05T11:25:39.321Z,53.96
2016-08-05T11:26:39.307Z,53.79
2016-08-05T11:27:39.295Z,53.5
2016-08-05T11:28:39.351Z,53.38
2016-08-05T11:29:39.997Z,53.77
2016-08-05T11:30:39.932Z,53.47
2016-08-05T11:31:39.852Z,53.67
2016-08-05T11:32:39.664Z,54.41
2016-08-05T11:33:39.886Z,54.41
2016-08-05T11:34:39.493Z,54.32
2016-08-05T11:35:39.812Z,54.22
2016-08-05T11:36:39.448Z,54.03
2016-08-05T11:37:39.504Z,53.86
2016-08-05T11:38:39.717Z,53.28
2016-08-05T11:39:39.768Z,53.19
2016-08-05T11:40:39.568Z,53.57
2016-08-05T11:41:39.560Z,53.47
2016-08-05T11:42:39.144Z,53.47
2016-08-05T11:43:40.304Z,53.38
2016-08-05T11:44:39.517Z,53.19
2016-08-05T11:45:40.053Z,53.64
2016-08-05T11:46:39.443Z,53.64
2016-08-05T11:47:39.356Z,53.64
2016-08-05T11:48:39.408Z,53.45
2016-08-05T11:49:39.204Z,53.83
2016-08-05T11:50:39.440Z,54.32
2016-08-05T11:51:39.390Z,54.41
2016-08-05T11:52:39.105Z,54.22
2016-08-05T11:53:39.283Z,53.64
2016-08-05T11:54:39.183Z,53.25
2016-08-05T11:55:38.980Z,53.67
2016-08-05T11:56:38.965Z,52.51
2016-08-05T11:57:39.070Z,52.89
2016-08-05T11:58:38.939Z,52.14
2016-08-05T11:59:38.932Z,51.95
2016-08-05T12:00:38.923Z,51.95
2016-08-05T12:01:38.903Z,51.76
2016-08-05T12:02:39.591Z,51.66
2016-08-05T12:03:38.887Z,51.01
2016-08-05T12:04:38.878Z,50.98
2016-08-05T12:05:38.867Z,50.72
2016-08-05T12:06:38.852Z,50.89
2016-08-05T12:07:38.846Z,51.08
2016-08-05T12:08:38.831Z,50.98
2016-08-05T12:09:38.823Z,51.08
2016-08-05T12:10:38.807Z,50.89
2016-08-05T12:11:38.800Z,50.79
2016-08-05T12:12:38.890Z,50.31
2016-08-05T12:13:38.782Z,49.95
2016-08-05T12:14:38.772Z,49.65
2016-08-05T12:15:39.600Z,49.46
2016-08-05T12:16:40.672Z,49.56
2016-08-05T12:17:38.801Z,49.37
2016-08-05T12:18:39.157Z,49.19
2016-08-05T12:19:39.341Z,49.29
2016-08-05T12:20:39.501Z,48.42
2016-08-05T12:21:39.204Z,48.22
2016-08-05T12:22:39.276Z,48.06
2016-08-05T12:23:38.900Z,47.96
2016-08-05T12:24:38.808Z,47.67
2016-08-05T12:25:38.747Z,47.47
2016-08-05T12:26:39.110Z,47.67
2016-08-05T12:27:38.785Z,47.38
2016-08-05T12:28:38.773Z,46.7
2016-08-05T12:29:38.923Z,46.87
2016-08-05T12:30:38.683Z,46.67
2016-08-05T12:31:38.740Z,46.97
2016-08-05T12:32:39.436Z,47.06
2016-08-05T12:33:38.613Z,47.36
2016-08-05T12:34:38.640Z,47.64
2016-08-05T12:35:38.658Z,47.36
2016-08-05T12:36:39.096Z,47.16
2016-08-05T12:37:38.831Z,46.67
2016-08-05T12:38:38.504Z,46.39
2016-08-05T12:39:38.495Z,46.39
2016-08-05T12:40:38.487Z,46
2016-08-05T12:41:38.473Z,45.73
2016-08-05T12:42:38.471Z,46.02
2016-08-05T12:43:38.524Z,45.83
2016-08-05T12:44:38.501Z,45.73
2016-08-05T12:45:38.490Z,46.02
2016-08-05T12:46:38.480Z,45.75
2016-08-05T12:47:38.471Z,45.65
2016-08-05T12:48:38.596Z,45.37
2016-08-05T12:49:38.465Z,45.2
2016-08-05T12:50:38.651Z,45.2
2016-08-05T12:51:38.648Z,45.27
2016-08-05T12:52:38.462Z,44.81
2016-08-05T12:53:38.414Z,44.4
2016-08-05T12:54:38.460Z,44.13
2016-08-05T12:55:38.341Z,43.93
2016-08-05T12:56:38.327Z,43.84
2016-08-05T12:57:38.423Z,43.64
2016-08-05T12:58:38.311Z,43.91
2016-08-05T12:59:38.298Z,43.52
2016-08-05T13:00:38.291Z,43.33